sensor_id;sensor_type;location;lat;lon;timestamp;pressure;altitude;pressure_sealevel;temperature;humidity
34081;BME280;20358;50.272;19.026;2022-12-07T00:00:11;97763.72;;;-0.85;73.71
34081;BME280;20358;50.272;19.026;2022-12-07T00:03:21;97767.84;;;-0.80;73.13
34081;BME280;20358;50.272;19.026;2022-12-07T00:06:27;97770.44;;;-0.80;73.28
34081;BME280;20358;50.272;19.026;2022-12-07T00:09:33;97762.50;;;-0.75;73.07
34081;BME280;20358;50.272;19.026;2022-12-07T00:12:40;97764.13;;;-0.73;73.11
34081;BME280;20358;50.272;19.026;2022-12-07T00:15:45;97766.72;;;-0.73;72.84
34081;BME280;20358;50.272;19.026;2022-12-07T00:18:55;97758.94;;;-0.73;72.91
34081;BME280;20358;50.272;19.026;2022-12-07T00:22:03;97766.72;;;-0.73;73.34
34081;BME280;20358;50.272;19.026;2022-12-07T00:25:09;97756.47;;;-0.76;72.75
34081;BME280;20358;50.272;19.026;2022-12-07T00:28:15;97759.06;;;-0.76;73.02
34081;BME280;20358;50.272;19.026;2022-12-07T00:31:23;97761.53;;;-0.73;72.96
34081;BME280;20358;50.272;19.026;2022-12-07T00:34:34;97748.13;;;-0.84;73.01
34081;BME280;20358;50.272;19.026;2022-12-07T00:37:40;97753.31;;;-0.84;73.49
34081;BME280;20358;50.272;19.026;2022-12-07T00:40:54;97744.03;;;-0.89;72.92
34081;BME280;20358;50.272;19.026;2022-12-07T00:44:04;97751.88;;;-0.91;73.19
34081;BME280;20358;50.272;19.026;2022-12-07T00:47:09;97738.84;;;-0.89;73.37
34081;BME280;20358;50.272;19.026;2022-12-07T00:50:18;97744.75;;;-0.86;73.24
34081;BME280;20358;50.272;19.026;2022-12-07T00:53:24;97740.28;;;-0.82;73.37
34081;BME280;20358;50.272;19.026;2022-12-07T00:56:36;97742.72;;;-0.78;73.62
34081;BME280;20358;50.272;19.026;2022-12-07T00:59:41;97750.41;;;-0.76;73.23
34081;BME280;20358;50.272;19.026;2022-12-07T01:02:48;97744.38;;;-0.77;73.08
34081;BME280;20358;50.272;19.026;2022-12-07T01:05:56;97742.03;;;-0.83;73.02
34081;BME280;20358;50.272;19.026;2022-12-07T01:09:05;97739.56;;;-0.86;73.14
34081;BME280;20358;50.272;19.026;2022-12-07T01:12:10;97734.25;;;-0.83;73.24
34081;BME280;20358;50.272;19.026;2022-12-07T01:15:17;97737.53;;;-0.78;73.45
34081;BME280;20358;50.272;19.026;2022-12-07T01:18:22;97732.09;;;-0.72;72.99
34081;BME280;20358;50.272;19.026;2022-12-07T01:21:34;97725.81;;;-0.66;73.16
34081;BME280;20358;50.272;19.026;2022-12-07T01:24:39;97730.13;;;-0.65;72.95
34081;BME280;20358;50.272;19.026;2022-12-07T01:27:46;97724.94;;;-0.65;73.25
34081;BME280;20358;50.272;19.026;2022-12-07T01:30:56;97725.47;;;-0.57;73.24
34081;BME280;20358;50.272;19.026;2022-12-07T01:34:05;97718.97;;;-0.45;73.19
34081;BME280;20358;50.272;19.026;2022-12-07T01:37:14;97718.72;;;-0.39;72.76
34081;BME280;20358;50.272;19.026;2022-12-07T01:40:20;97721.06;;;-0.33;72.86
34081;BME280;20358;50.272;19.026;2022-12-07T01:43:27;97717.31;;;-0.26;72.60
34081;BME280;20358;50.272;19.026;2022-12-07T01:46:39;97722.25;;;-0.20;72.44
34081;BME280;20358;50.272;19.026;2022-12-07T01:49:48;97571.19;;;-1.09;72.21
34081;BME280;20358;50.272;19.026;2022-12-07T01:53:02;97719.41;;;-0.14;72.07
34081;BME280;20358;50.272;19.026;2022-12-07T01:56:14;97719.28;;;-0.11;72.41
34081;BME280;20358;50.272;19.026;2022-12-07T01:59:25;97714.78;;;-0.08;72.00
34081;BME280;20358;50.272;19.026;2022-12-07T02:02:34;97721.81;;;-0.10;72.07
34081;BME280;20358;50.272;19.026;2022-12-07T02:05:44;97721.88;;;-0.11;71.85
34081;BME280;20358;50.272;19.026;2022-12-07T02:08:55;97717.84;;;-0.18;72.20
34081;BME280;20358;50.272;19.026;2022-12-07T02:12:04;97719.81;;;-0.23;72.65
34081;BME280;20358;50.272;19.026;2022-12-07T02:15:12;97718.09;;;-0.24;72.37
34081;BME280;20358;50.272;19.026;2022-12-07T02:18:27;97717.25;;;-0.25;72.54
34081;BME280;20358;50.272;19.026;2022-12-07T02:21:53;97719.06;;;-0.27;72.33
34081;BME280;20358;50.272;19.026;2022-12-07T02:25:28;97720.03;;;-0.29;72.81
34081;BME280;20358;50.272;19.026;2022-12-07T02:29:10;97722.41;;;-0.23;73.12
34081;BME280;20358;50.272;19.026;2022-12-07T02:32:27;97717.78;;;-0.17;72.69
34081;BME280;20358;50.272;19.026;2022-12-07T02:35:44;97718.63;;;-0.16;72.70
34081;BME280;20358;50.272;19.026;2022-12-07T02:39:02;97723.28;;;-0.24;72.44
34081;BME280;20358;50.272;19.026;2022-12-07T02:42:23;97718.47;;;-0.33;72.84
34081;BME280;20358;50.272;19.026;2022-12-07T02:45:42;97724.16;;;-0.45;72.92
34081;BME280;20358;50.272;19.026;2022-12-07T02:48:50;97715.47;;;-0.44;72.80
34081;BME280;20358;50.272;19.026;2022-12-07T02:51:57;97702.06;;;-0.55;73.03
34081;BME280;20358;50.272;19.026;2022-12-07T02:55:06;97698.94;;;-0.63;73.24
34081;BME280;20358;50.272;19.026;2022-12-07T02:58:27;97700.88;;;-0.69;73.76
34081;BME280;20358;50.272;19.026;2022-12-07T03:01:55;97700.63;;;-0.62;73.54
34081;BME280;20358;50.272;19.026;2022-12-07T03:05:28;97700.09;;;-0.71;73.57
34081;BME280;20358;50.272;19.026;2022-12-07T03:08:53;97699.47;;;-0.77;73.81
34081;BME280;20358;50.272;19.026;2022-12-07T03:12:12;97697.50;;;-0.71;73.82
34081;BME280;20358;50.272;19.026;2022-12-07T03:15:30;97694.72;;;-0.66;74.03
34081;BME280;20358;50.272;19.026;2022-12-07T03:18:47;97693.19;;;-0.72;74.07
34081;BME280;20358;50.272;19.026;2022-12-07T03:22:00;97691.22;;;-0.65;73.84
34081;BME280;20358;50.272;19.026;2022-12-07T03:25:13;97691.38;;;-0.70;73.95
34081;BME280;20358;50.272;19.026;2022-12-07T03:28:24;97683.75;;;-0.73;73.76
34081;BME280;20358;50.272;19.026;2022-12-07T03:31:40;97691.34;;;-0.68;74.11
34081;BME280;20358;50.272;19.026;2022-12-07T03:34:59;97689.63;;;-0.69;73.89
34081;BME280;20358;50.272;19.026;2022-12-07T03:38:16;97699.81;;;-0.65;73.95
34081;BME280;20358;50.272;19.026;2022-12-07T03:41:27;97682.84;;;-0.72;73.66
34081;BME280;20358;50.272;19.026;2022-12-07T03:44:42;97687.34;;;-0.77;73.88
34081;BME280;20358;50.272;19.026;2022-12-07T03:47:57;97687.59;;;-0.83;74.40
34081;BME280;20358;50.272;19.026;2022-12-07T03:51:21;97684.41;;;-0.89;74.25
34081;BME280;20358;50.272;19.026;2022-12-07T03:54:36;97676.63;;;-0.89;74.33
34081;BME280;20358;50.272;19.026;2022-12-07T03:57:51;97675.34;;;-1.01;74.68
34081;BME280;20358;50.272;19.026;2022-12-07T04:01:03;97690.63;;;-0.93;74.84
34081;BME280;20358;50.272;19.026;2022-12-07T04:04:09;97680.31;;;-0.95;74.64
34081;BME280;20358;50.272;19.026;2022-12-07T04:07:19;97682.78;;;-0.92;74.79
34081;BME280;20358;50.272;19.026;2022-12-07T04:10:25;97679.53;;;-0.97;74.54
34081;BME280;20358;50.272;19.026;2022-12-07T04:13:30;97680.31;;;-0.95;74.42
34081;BME280;20358;50.272;19.026;2022-12-07T04:16:58;97682.31;;;-1.01;74.06
34081;BME280;20358;50.272;19.026;2022-12-07T04:20:06;97679.75;;;-1.03;74.52
34081;BME280;20358;50.272;19.026;2022-12-07T04:23:15;97677.81;;;-0.98;74.33
34081;BME280;20358;50.272;19.026;2022-12-07T04:26:21;97675.78;;;-0.90;74.05
34081;BME280;20358;50.272;19.026;2022-12-07T04:29:28;97670.59;;;-0.90;73.81
34081;BME280;20358;50.272;19.026;2022-12-07T04:32:33;97676.03;;;-0.96;73.97
34081;BME280;20358;50.272;19.026;2022-12-07T04:35:42;97680.97;;;-0.90;73.67
34081;BME280;20358;50.272;19.026;2022-12-07T04:38:53;97682.78;;;-0.92;73.81
34081;BME280;20358;50.272;19.026;2022-12-07T04:42:01;97688.19;;;-0.98;73.96
34081;BME280;20358;50.272;19.026;2022-12-07T04:45:08;97686.75;;;-1.05;73.97
34081;BME280;20358;50.272;19.026;2022-12-07T04:48:15;97675.44;;;-1.02;73.88
34081;BME280;20358;50.272;19.026;2022-12-07T04:51:23;97679.63;;;-1.00;73.66
34081;BME280;20358;50.272;19.026;2022-12-07T04:54:34;97692.50;;;-0.97;74.29
34081;BME280;20358;50.272;19.026;2022-12-07T04:57:40;97683.13;;;-1.01;74.10
34081;BME280;20358;50.272;19.026;2022-12-07T05:00:46;97673.19;;;-1.11;73.87
34081;BME280;20358;50.272;19.026;2022-12-07T05:03:52;97680.69;;;-1.04;73.48
34081;BME280;20358;50.272;19.026;2022-12-07T05:06:59;97681.47;;;-1.02;73.78
34081;BME280;20358;50.272;19.026;2022-12-07T05:10:09;97688.94;;;-0.94;73.61
34081;BME280;20358;50.272;19.026;2022-12-07T05:13:16;97682.47;;;-1.06;73.63
34081;BME280;20358;50.272;19.026;2022-12-07T05:16:21;97695.97;;;-0.98;73.62
34081;BME280;20358;50.272;19.026;2022-12-07T05:19:28;97684.03;;;-1.02;73.36
34081;BME280;20358;50.272;19.026;2022-12-07T05:22:33;97688.56;;;-1.07;73.84
34081;BME280;20358;50.272;19.026;2022-12-07T05:25:43;97685.06;;;-1.06;73.76
34081;BME280;20358;50.272;19.026;2022-12-07T05:28:51;97686.97;;;-1.11;73.90
34081;BME280;20358;50.272;19.026;2022-12-07T05:31:58;97690.38;;;-1.09;74.26
34081;BME280;20358;50.272;19.026;2022-12-07T05:35:05;97690.31;;;-1.07;73.87
34081;BME280;20358;50.272;19.026;2022-12-07T05:38:14;97688.56;;;-1.07;74.26
34081;BME280;20358;50.272;19.026;2022-12-07T05:41:22;97676.50;;;-1.08;74.10
34081;BME280;20358;50.272;19.026;2022-12-07T05:44:46;97676.78;;;-1.15;74.25
34081;BME280;20358;50.272;19.026;2022-12-07T05:47:52;97674.44;;;-1.21;74.39
34081;BME280;20358;50.272;19.026;2022-12-07T05:50:58;97682.38;;;-1.26;74.60
34081;BME280;20358;50.272;19.026;2022-12-07T05:54:04;97679.13;;;-1.31;74.22
34081;BME280;20358;50.272;19.026;2022-12-07T05:57:14;97691.28;;;-1.33;74.75
34081;BME280;20358;50.272;19.026;2022-12-07T06:00:19;97684.09;;;-1.25;74.53
34081;BME280;20358;50.272;19.026;2022-12-07T06:03:23;97678.28;;;-1.32;74.68
34081;BME280;20358;50.272;19.026;2022-12-07T06:06:29;97690.56;;;-1.37;74.81
34081;BME280;20358;50.272;19.026;2022-12-07T06:09:35;97685.25;;;-1.34;75.03
34081;BME280;20358;50.272;19.026;2022-12-07T06:12:44;97697.22;;;-1.30;74.91
34081;BME280;20358;50.272;19.026;2022-12-07T06:15:49;97688.53;;;-1.29;74.87
34081;BME280;20358;50.272;19.026;2022-12-07T06:18:54;97691.84;;;-1.25;74.99
34081;BME280;20358;50.272;19.026;2022-12-07T06:22:03;97692.75;;;-1.26;74.88
34081;BME280;20358;50.272;19.026;2022-12-07T06:25:09;97694.19;;;-1.19;74.36
34081;BME280;20358;50.272;19.026;2022-12-07T06:28:18;97706.63;;;-1.27;74.71
34081;BME280;20358;50.272;19.026;2022-12-07T06:31:24;97701.66;;;-1.33;74.72
34081;BME280;20358;50.272;19.026;2022-12-07T06:34:30;97706.84;;;-1.33;75.26
34081;BME280;20358;50.272;19.026;2022-12-07T06:37:36;97710.28;;;-1.33;74.68
34081;BME280;20358;50.272;19.026;2022-12-07T06:40:42;97708.50;;;-1.32;74.53
34081;BME280;20358;50.272;19.026;2022-12-07T06:43:51;97710.84;;;-1.48;75.46
34081;BME280;20358;50.272;19.026;2022-12-07T06:46:58;97715.31;;;-1.53;75.67
34081;BME280;20358;50.272;19.026;2022-12-07T06:50:24;97723.03;;;-1.51;75.38
34081;BME280;20358;50.272;19.026;2022-12-07T06:53:30;97711.28;;;-1.60;75.73
34081;BME280;20358;50.272;19.026;2022-12-07T06:56:36;97714.59;;;-1.56;75.43
34081;BME280;20358;50.272;19.026;2022-12-07T06:59:45;97716.44;;;-1.60;75.81
34081;BME280;20358;50.272;19.026;2022-12-07T07:02:51;97723.34;;;-1.60;75.64
34081;BME280;20358;50.272;19.026;2022-12-07T07:05:57;97710.75;;;-1.69;76.24
34081;BME280;20358;50.272;19.026;2022-12-07T07:09:04;97702.72;;;-1.62;76.28
34081;BME280;20358;50.272;19.026;2022-12-07T07:12:12;97705.50;;;-1.68;75.64
34081;BME280;20358;50.272;19.026;2022-12-07T07:15:20;97714.81;;;-1.62;76.02
34081;BME280;20358;50.272;19.026;2022-12-07T07:18:27;97719.03;;;-1.60;76.20
34081;BME280;20358;50.272;19.026;2022-12-07T07:21:33;97719.00;;;-1.58;76.19
34081;BME280;20358;50.272;19.026;2022-12-07T07:24:39;97725.63;;;-1.74;76.05
34081;BME280;20358;50.272;19.026;2022-12-07T07:27:45;97717.94;;;-1.77;76.61
34081;BME280;20358;50.272;19.026;2022-12-07T07:30:57;97725.38;;;-1.68;76.81
34081;BME280;20358;50.272;19.026;2022-12-07T07:34:04;97718.53;;;-1.69;76.78
34081;BME280;20358;50.272;19.026;2022-12-07T07:37:13;97723.75;;;-1.71;75.99
34081;BME280;20358;50.272;19.026;2022-12-07T07:40:29;97722.56;;;-1.62;76.80
34081;BME280;20358;50.272;19.026;2022-12-07T07:43:37;97722.47;;;-1.59;76.32
34081;BME280;20358;50.272;19.026;2022-12-07T07:46:48;97723.03;;;-1.51;76.37
34081;BME280;20358;50.272;19.026;2022-12-07T07:49:56;97723.16;;;-1.54;76.18
34081;BME280;20358;50.272;19.026;2022-12-07T07:53:02;97725.63;;;-1.51;76.05
34081;BME280;20358;50.272;19.026;2022-12-07T07:56:11;97725.91;;;-1.59;76.07
34081;BME280;20358;50.272;19.026;2022-12-07T07:59:17;97722.84;;;-1.45;75.96
34081;BME280;20358;50.272;19.026;2022-12-07T08:02:26;97720.91;;;-1.40;76.23
34081;BME280;20358;50.272;19.026;2022-12-07T08:05:32;97723.22;;;-1.33;75.82
34081;BME280;20358;50.272;19.026;2022-12-07T08:08:38;97726.91;;;-1.40;76.07
34081;BME280;20358;50.272;19.026;2022-12-07T08:11:44;97727.34;;;-1.27;75.77
34081;BME280;20358;50.272;19.026;2022-12-07T08:14:50;97736.09;;;-1.31;76.18
34081;BME280;20358;50.272;19.026;2022-12-07T08:17:58;97738.19;;;-1.17;75.57
34081;BME280;20358;50.272;19.026;2022-12-07T08:21:07;97737.13;;;-1.12;75.82
34081;BME280;20358;50.272;19.026;2022-12-07T08:24:15;97738.69;;;-1.08;75.45
34081;BME280;20358;50.272;19.026;2022-12-07T08:27:22;97740.88;;;-0.97;75.73
34081;BME280;20358;50.272;19.026;2022-12-07T08:30:29;97750.41;;;-1.21;75.21
34081;BME280;20358;50.272;19.026;2022-12-07T08:33:40;97755.88;;;-1.05;75.25
34081;BME280;20358;50.272;19.026;2022-12-07T08:36:46;97746.06;;;-0.97;75.50
34081;BME280;20358;50.272;19.026;2022-12-07T08:39:52;97753.31;;;-0.84;74.94
34081;BME280;20358;50.272;19.026;2022-12-07T08:42:58;97744.75;;;-0.86;74.75
34081;BME280;20358;50.272;19.026;2022-12-07T08:46:09;97747.22;;;-0.83;74.81
34081;BME280;20358;50.272;19.026;2022-12-07T08:49:27;97756.34;;;-0.73;74.41
34081;BME280;20358;50.272;19.026;2022-12-07T08:52:40;97764.41;;;-0.58;74.82
34081;BME280;20358;50.272;19.026;2022-12-07T08:55:48;97766.22;;;-0.60;74.05
34081;BME280;20358;50.272;19.026;2022-12-07T08:58:55;97773.13;;;-0.59;73.85
34081;BME280;20358;50.272;19.026;2022-12-07T09:02:05;97771.41;;;-0.60;74.01
34081;BME280;20358;50.272;19.026;2022-12-07T09:05:16;97764.06;;;-0.49;74.19
34081;BME280;20358;50.272;19.026;2022-12-07T09:08:26;97771.56;;;-0.42;73.87
34081;BME280;20358;50.272;19.026;2022-12-07T09:11:38;97754.13;;;-0.38;73.41
34081;BME280;20358;50.272;19.026;2022-12-07T09:14:44;97758.00;;;-0.27;73.88
34081;BME280;20358;50.272;19.026;2022-12-07T09:17:51;97748.19;;;-0.20;72.99
34081;BME280;20358;50.272;19.026;2022-12-07T09:20:59;97744.91;;;-0.24;72.90
34081;BME280;20358;50.272;19.026;2022-12-07T09:24:07;97743.00;;;-0.20;73.04
34081;BME280;20358;50.272;19.026;2022-12-07T09:27:12;97745.34;;;-0.14;73.42
34081;BME280;20358;50.272;19.026;2022-12-07T09:30:20;97739.66;;;-0.02;72.80
34081;BME280;20358;50.272;19.026;2022-12-07T09:33:25;97743.63;;;0.07;72.56
34081;BME280;20358;50.272;19.026;2022-12-07T09:36:35;97732.25;;;0.09;72.88
34081;BME280;20358;50.272;19.026;2022-12-07T09:39:41;97731.59;;;0.24;72.96
34081;BME280;20358;50.272;19.026;2022-12-07T09:43:03;97725.91;;;0.36;72.02
34081;BME280;20358;50.272;19.026;2022-12-07T09:46:14;97722.25;;;0.40;72.22
34081;BME280;20358;50.272;19.026;2022-12-07T09:49:24;97718.59;;;0.44;71.89
34081;BME280;20358;50.272;19.026;2022-12-07T09:52:36;97717.34;;;0.53;72.20
34081;BME280;20358;50.272;19.026;2022-12-07T09:55:43;97709.50;;;0.54;71.92
34081;BME280;20358;50.272;19.026;2022-12-07T09:58:50;97705.97;;;0.55;71.61
34081;BME280;20358;50.272;19.026;2022-12-07T10:02:34;97705.97;;;0.55;70.86
34081;BME280;20358;50.272;19.026;2022-12-07T10:05:44;97695.72;;;0.52;70.85
34081;BME280;20358;50.272;19.026;2022-12-07T10:08:55;97699.25;;;0.51;72.13
34081;BME280;20358;50.272;19.026;2022-12-07T10:12:06;97686.88;;;0.56;71.77
34081;BME280;20358;50.272;19.026;2022-12-07T10:15:14;97677.84;;;0.65;72.14
34081;BME280;20358;50.272;19.026;2022-12-07T10:18:26;97677.00;;;0.65;71.77
34081;BME280;20358;50.272;19.026;2022-12-07T10:21:35;97668.84;;;0.72;72.17
34081;BME280;20358;50.272;19.026;2022-12-07T10:24:46;97667.91;;;0.73;71.56
34081;BME280;20358;50.272;19.026;2022-12-07T10:28:01;97658.25;;;0.77;71.81
34081;BME280;20358;50.272;19.026;2022-12-07T10:31:18;97646.16;;;0.76;71.57
34081;BME280;20358;50.272;19.026;2022-12-07T10:34:30;97654.56;;;0.81;70.07
34081;BME280;20358;50.272;19.026;2022-12-07T10:37:43;97649.38;;;0.81;70.64
34081;BME280;20358;50.272;19.026;2022-12-07T10:41:03;97658.66;;;0.86;70.74
34081;BME280;20358;50.272;19.026;2022-12-07T10:44:21;97656.66;;;0.91;71.16
34081;BME280;20358;50.272;19.026;2022-12-07T10:47:36;97652.31;;;0.92;70.48
34081;BME280;20358;50.272;19.026;2022-12-07T10:51:04;97653.56;;;1.02;70.45
34081;BME280;20358;50.272;19.026;2022-12-07T10:54:29;97659.19;;;1.11;71.13
34081;BME280;20358;50.272;19.026;2022-12-07T10:58:09;97656.22;;;1.19;69.28
34081;BME280;20358;50.272;19.026;2022-12-07T11:01:36;97642.91;;;1.25;69.08
34081;BME280;20358;50.272;19.026;2022-12-07T11:05:01;97643.31;;;1.35;69.63
34081;BME280;20358;50.272;19.026;2022-12-07T11:08:27;97648.44;;;1.36;68.75
34081;BME280;20358;50.272;19.026;2022-12-07T11:11:52;97643.38;;;1.33;69.07
34081;BME280;20358;50.272;19.026;2022-12-07T11:15:18;97646.22;;;1.29;68.09
34081;BME280;20358;50.272;19.026;2022-12-07T11:18:38;97645.38;;;1.28;68.32
34081;BME280;20358;50.272;19.026;2022-12-07T11:21:57;97638.78;;;1.21;68.03
34081;BME280;20358;50.272;19.026;2022-12-07T11:25:20;97627.53;;;1.20;69.33
34081;BME280;20358;50.272;19.026;2022-12-07T11:28:57;97627.69;;;1.17;67.89
34081;BME280;20358;50.272;19.026;2022-12-07T11:32:44;97622.09;;;1.08;68.82
34081;BME280;20358;50.272;19.026;2022-12-07T11:36:25;97626.66;;;1.03;68.46
34081;BME280;20358;50.272;19.026;2022-12-07T11:39:44;97618.53;;;0.92;68.52
34081;BME280;20358;50.272;19.026;2022-12-07T11:43:01;97604.31;;;0.99;68.41
34081;BME280;20358;50.272;19.026;2022-12-07T11:46:15;97596.84;;;1.10;67.81
34081;BME280;20358;50.272;19.026;2022-12-07T11:49:39;97597.47;;;1.15;67.85
34081;BME280;20358;50.272;19.026;2022-12-07T11:52:53;97608.00;;;1.12;68.22
34081;BME280;20358;50.272;19.026;2022-12-07T11:56:12;97606.19;;;1.14;67.62
34081;BME280;20358;50.272;19.026;2022-12-07T11:59:26;97597.94;;;1.06;67.28
34081;BME280;20358;50.272;19.026;2022-12-07T12:02:43;97597.44;;;0.98;67.27
34081;BME280;20358;50.272;19.026;2022-12-07T12:05:59;97596.84;;;0.93;66.77
34081;BME280;20358;50.272;19.026;2022-12-07T12:09:12;97605.53;;;0.92;68.53
34081;BME280;20358;50.272;19.026;2022-12-07T12:13:02;97619.28;;;0.94;67.76
34081;BME280;20358;50.272;19.026;2022-12-07T12:20:45;97612.91;;;1.01;67.85
34081;BME280;20358;50.272;19.026;2022-12-07T12:24:04;97612.59;;;1.07;67.50
34081;BME280;20358;50.272;19.026;2022-12-07T12:27:22;97609.84;;;1.10;66.71
34081;BME280;20358;50.272;19.026;2022-12-07T12:30:35;97601.16;;;1.11;66.17
34081;BME280;20358;50.272;19.026;2022-12-07T12:33:48;97604.38;;;1.16;66.51
34081;BME280;20358;50.272;19.026;2022-12-07T12:36:56;97606.63;;;1.05;65.90
34081;BME280;20358;50.272;19.026;2022-12-07T12:40:42;97594.09;;;0.96;65.66
34081;BME280;20358;50.272;19.026;2022-12-07T12:43:53;97595.00;;;0.95;65.56
34081;BME280;20358;50.272;19.026;2022-12-07T12:47:00;97592.69;;;0.89;66.37
34081;BME280;20358;50.272;19.026;2022-12-07T12:50:19;97576.78;;;0.95;66.58
34081;BME280;20358;50.272;19.026;2022-12-07T12:53:27;97577.41;;;1.00;66.83
34081;BME280;20358;50.272;19.026;2022-12-07T12:56:44;97578.25;;;1.00;65.94
34081;BME280;20358;50.272;19.026;2022-12-07T12:59:58;97575.16;;;1.11;65.26
34081;BME280;20358;50.272;19.026;2022-12-07T13:03:24;97577.59;;;1.14;65.07
34081;BME280;20358;50.272;19.026;2022-12-07T13:06:36;97570.31;;;1.20;65.47
34081;BME280;20358;50.272;19.026;2022-12-07T13:09:45;97570.94;;;1.26;66.16
34081;BME280;20358;50.272;19.026;2022-12-07T13:16:42;97582.19;;;1.26;65.38
34081;BME280;20358;50.272;19.026;2022-12-07T13:19:56;97601.78;;;1.33;64.50
34081;BME280;20358;50.272;19.026;2022-12-07T13:23:09;97589.00;;;1.29;63.63
34081;BME280;20358;50.272;19.026;2022-12-07T13:26:17;97595.03;;;1.29;63.51
34081;BME280;20358;50.272;19.026;2022-12-07T13:29:36;97582.28;;;1.25;62.20
34081;BME280;20358;50.272;19.026;2022-12-07T13:32:53;97579.59;;;1.26;62.59
34081;BME280;20358;50.272;19.026;2022-12-07T13:36:04;97598.66;;;1.27;61.64
34081;BME280;20358;50.272;19.026;2022-12-07T13:39:24;97580.72;;;1.20;60.85
34081;BME280;20358;50.272;19.026;2022-12-07T13:42:33;97600.53;;;1.23;61.22
34081;BME280;20358;50.272;19.026;2022-12-07T13:45:43;97603.53;;;1.15;60.10
34081;BME280;20358;50.272;19.026;2022-12-07T13:48:55;97601.16;;;1.11;60.96
34081;BME280;20358;50.272;19.026;2022-12-07T13:52:16;97601.28;;;1.08;61.53
34081;BME280;20358;50.272;19.026;2022-12-07T13:55:24;97605.59;;;1.09;60.24
34081;BME280;20358;50.272;19.026;2022-12-07T13:58:32;97610.00;;;1.07;60.05
34081;BME280;20358;50.272;19.026;2022-12-07T14:01:45;97611.91;;;1.03;60.63
34081;BME280;20358;50.272;19.026;2022-12-07T14:05:08;97610.50;;;0.96;60.01
34081;BME280;20358;50.272;19.026;2022-12-07T14:08:22;97609.38;;;1.02;61.15
34081;BME280;20358;50.272;19.026;2022-12-07T14:11:30;97626.31;;;0.92;60.69
34081;BME280;20358;50.272;19.026;2022-12-07T14:14:36;97625.94;;;0.82;60.65
34081;BME280;20358;50.272;19.026;2022-12-07T14:17:53;97621.72;;;0.80;60.54
34081;BME280;20358;50.272;19.026;2022-12-07T14:21:05;97621.00;;;0.76;60.67
34081;BME280;20358;50.272;19.026;2022-12-07T14:24:20;97629.72;;;0.75;60.87
34081;BME280;20358;50.272;19.026;2022-12-07T14:27:32;97629.94;;;0.71;60.62
34081;BME280;20358;50.272;19.026;2022-12-07T14:30:41;97642.09;;;0.70;61.58
34081;BME280;20358;50.272;19.026;2022-12-07T14:33:51;97636.81;;;0.72;61.05
34081;BME280;20358;50.272;19.026;2022-12-07T14:36:56;97641.13;;;0.73;61.73
34081;BME280;20358;50.272;19.026;2022-12-07T14:40:06;97647.84;;;0.77;61.49
34081;BME280;20358;50.272;19.026;2022-12-07T14:43:18;97601.44;;;0.50;61.18
34081;BME280;20358;50.272;19.026;2022-12-07T14:46:25;97647.56;;;0.83;61.16
34081;BME280;20358;50.272;19.026;2022-12-07T14:49:34;97647.84;;;0.95;61.75
34081;BME280;20358;50.272;19.026;2022-12-07T14:52:43;97649.84;;;0.89;61.37
34081;BME280;20358;50.272;19.026;2022-12-07T14:56:13;97662.09;;;0.87;61.53
34081;BME280;20358;50.272;19.026;2022-12-07T14:59:19;97661.19;;;0.69;61.00
34081;BME280;20358;50.272;19.026;2022-12-07T15:02:25;97656.63;;;0.74;61.07
34081;BME280;20358;50.272;19.026;2022-12-07T15:05:34;97656.25;;;0.82;61.02
34081;BME280;20358;50.272;19.026;2022-12-07T15:08:41;97652.63;;;0.86;62.17
34081;BME280;20358;50.272;19.026;2022-12-07T15:11:47;97663.72;;;0.89;60.99
34081;BME280;20358;50.272;19.026;2022-12-07T15:14:53;97665.50;;;0.70;61.43
34081;BME280;20358;50.272;19.026;2022-12-07T15:17:59;97657.13;;;0.64;61.10
34081;BME280;20358;50.272;19.026;2022-12-07T15:21:12;97658.94;;;0.62;61.38
34081;BME280;20358;50.272;19.026;2022-12-07T15:24:20;97664.63;;;0.51;61.61
34081;BME280;20358;50.272;19.026;2022-12-07T15:27:26;97657.69;;;0.51;61.75
34081;BME280;20358;50.272;19.026;2022-12-07T15:30:32;97660.91;;;0.56;62.32
34081;BME280;20358;50.272;19.026;2022-12-07T15:33:38;97659.50;;;0.49;61.42
34081;BME280;20358;50.272;19.026;2022-12-07T15:36:47;97660.06;;;0.56;62.04
34081;BME280;20358;50.272;19.026;2022-12-07T15:39:53;97659.09;;;0.58;62.14
34081;BME280;20358;50.272;19.026;2022-12-07T15:43:08;97669.31;;;0.43;62.22
34081;BME280;20358;50.272;19.026;2022-12-07T15:46:36;97656.69;;;0.35;62.24
34081;BME280;20358;50.272;19.026;2022-12-07T15:49:43;97668.75;;;0.36;62.14
34081;BME280;20358;50.272;19.026;2022-12-07T15:52:51;97662.00;;;0.32;62.29
34081;BME280;20358;50.272;19.026;2022-12-07T15:55:58;97661.94;;;0.34;62.36
34081;BME280;20358;50.272;19.026;2022-12-07T15:59:05;97660.47;;;0.28;62.10
34081;BME280;20358;50.272;19.026;2022-12-07T16:02:11;97650.00;;;0.30;61.43
34081;BME280;20358;50.272;19.026;2022-12-07T16:05:16;97656.81;;;0.32;61.81
34081;BME280;20358;50.272;19.026;2022-12-07T16:08:25;97657.22;;;0.23;61.73
34081;BME280;20358;50.272;19.026;2022-12-07T16:11:37;97674.47;;;0.24;62.87
34081;BME280;20358;50.272;19.026;2022-12-07T16:14:43;97664.50;;;0.15;61.91
34081;BME280;20358;50.272;19.026;2022-12-07T16:17:49;97664.50;;;0.15;62.52
34081;BME280;20358;50.272;19.026;2022-12-07T16:20:56;97668.13;;;0.11;62.18
34081;BME280;20358;50.272;19.026;2022-12-07T16:24:07;97669.09;;;0.09;61.97
34081;BME280;20358;50.272;19.026;2022-12-07T16:27:15;97672.81;;;0.03;62.33
34081;BME280;20358;50.272;19.026;2022-12-07T16:30:21;97669.66;;;-0.03;63.36
34081;BME280;20358;50.272;19.026;2022-12-07T16:33:28;97673.84;;;-0.01;62.74
34081;BME280;20358;50.272;19.026;2022-12-07T16:36:33;97675.03;;;-0.08;62.88
34081;BME280;20358;50.272;19.026;2022-12-07T16:40:03;97667.31;;;-0.10;63.44
34081;BME280;20358;50.272;19.026;2022-12-07T16:43:13;97677.63;;;-0.08;63.50
34081;BME280;20358;50.272;19.026;2022-12-07T16:46:19;97677.34;;;-0.02;63.73
34081;BME280;20358;50.272;19.026;2022-12-07T16:49:25;97673.84;;;-0.01;63.05
34081;BME280;20358;50.272;19.026;2022-12-07T16:52:31;97667.13;;;-0.05;63.20
34081;BME280;20358;50.272;19.026;2022-12-07T16:55:42;97679.06;;;-0.01;63.39